createdAt,value
2022-10-20T00:01:29.563Z,100527.75
2022-10-20T00:04:32.632Z,100528.09
2022-10-20T00:07:35.164Z,100532.66
2022-10-20T00:10:39.517Z,100532.84
2022-10-20T00:13:43.092Z,100533.78
2022-10-20T00:16:46.060Z,100529.56
2022-10-20T00:19:49.173Z,100517.97
2022-10-20T00:22:52.023Z,100533.03
2022-10-20T00:26:05.271Z,100530.59
2022-10-20T00:29:08.343Z,100494.34
2022-10-20T00:32:10.970Z,100492.75
2022-10-20T00:35:13.840Z,100516.66
2022-10-20T00:38:16.379Z,100514.97
2022-10-20T00:41:21.086Z,100524.09
2022-10-20T00:44:53.913Z,100514.16
2022-10-20T00:48:00.802Z,100514.50
2022-10-20T00:51:04.067Z,100513.19
2022-10-20T00:54:10.587Z,100500.28
2022-10-20T00:57:13.712Z,100507.75
2022-10-20T01:00:17.335Z,100495.41
2022-10-20T01:03:25.794Z,100504.16
2022-10-20T01:06:28.816Z,100494.97
2022-10-20T01:09:32.048Z,100495.09
2022-10-20T01:12:58.341Z,100495.25
2022-10-20T01:16:17.298Z,100480.50
2022-10-20T01:19:41.921Z,100489.13
2022-10-20T01:23:12.231Z,100480.87
2022-10-20T01:26:33.769Z,100478.03
2022-10-20T01:29:43.710Z,100477.25
2022-10-20T01:33:16.767Z,100455.22
2022-10-20T01:36:28.858Z,100461.06
2022-10-20T01:39:40.770Z,100466.72
2022-10-20T01:42:45.987Z,100454.63
2022-10-20T01:45:50.630Z,100459.03
2022-10-20T01:48:54.417Z,100455.91
2022-10-20T01:51:57.434Z,100429.44
2022-10-20T01:54:59.985Z,100459.88
2022-10-20T01:58:30.054Z,100455.72
2022-10-20T02:01:42.048Z,100456.94
2022-10-20T02:05:15.971Z,100451.31
2022-10-20T02:08:42.811Z,100455.72
2022-10-20T02:11:48.305Z,100464.06
2022-10-20T02:14:51.568Z,100463.84
2022-10-20T02:18:00.937Z,100453.87
2022-10-20T02:21:04.271Z,100455.75
2022-10-20T02:24:09.649Z,100445.34
2022-10-20T02:27:16.638Z,100452.84
2022-10-20T02:30:23.330Z,100464.91
2022-10-20T02:33:26.815Z,100459.69
2022-10-20T02:36:30.580Z,100451.50
2022-10-20T02:39:33.108Z,100431.25
2022-10-20T02:42:36.085Z,100438.16
2022-10-20T02:45:39.241Z,100452.50
2022-10-20T02:48:42.071Z,100457.72
2022-10-20T02:51:44.565Z,100465.69
2022-10-20T02:54:48.021Z,100474.03
2022-10-20T02:57:51.304Z,100466.38
2022-10-20T03:00:56.176Z,100477.03
2022-10-20T03:03:59.988Z,100474.53
2022-10-20T03:07:03.075Z,100472.25
2022-10-20T03:10:06.634Z,100471.19
2022-10-20T03:13:10.849Z,100467.03
2022-10-20T03:16:13.431Z,100471.41
2022-10-20T03:19:16.416Z,100472.25
2022-10-20T03:22:18.979Z,100481.03
2022-10-20T03:25:22.050Z,100456.78
2022-10-20T03:28:26.945Z,100483.03
2022-10-20T03:31:30.054Z,100484.44
2022-10-20T03:34:32.635Z,100486.06
2022-10-20T03:37:35.487Z,100476.22
2022-10-20T03:40:38.388Z,100492.28
2022-10-20T03:43:41.740Z,100472.22
2022-10-20T03:46:44.249Z,100471.72
2022-10-20T03:49:47.137Z,100479.38
2022-10-20T03:52:50.147Z,100493.94
2022-10-20T03:55:53.050Z,100481.37
2022-10-20T03:58:55.733Z,100482.38
2022-10-20T04:01:58.821Z,100503.59
2022-10-20T04:05:01.944Z,100507.28
2022-10-20T04:08:04.969Z,100514.34
2022-10-20T04:11:09.797Z,100511.44
2022-10-20T04:14:12.524Z,100507.00
2022-10-20T04:17:15.304Z,100510.47
2022-10-20T04:20:19.651Z,100510.19
2022-10-20T04:23:22.517Z,100513.88
2022-10-20T04:26:25.048Z,100513.22
2022-10-20T04:29:27.935Z,100512.47
2022-10-20T04:32:30.505Z,100499.62
2022-10-20T04:35:33.543Z,100517.09
2022-10-20T04:38:36.450Z,100517.22
2022-10-20T04:41:39.458Z,100511.25
2022-10-20T04:44:42.010Z,100497.72
2022-10-20T04:47:44.737Z,100503.97
2022-10-20T04:50:48.564Z,100511.63
2022-10-20T04:53:51.410Z,100507.94
2022-10-20T04:56:54.042Z,100513.62
2022-10-20T04:59:56.815Z,100512.63
2022-10-20T05:02:59.434Z,100508.75
2022-10-20T05:06:14.221Z,100518.31
2022-10-20T05:09:17.035Z,100525.88
2022-10-20T05:12:20.001Z,100524.66
2022-10-20T05:15:22.595Z,100530.44
2022-10-20T05:18:26.291Z,100539.81
2022-10-20T05:21:31.188Z,100540.84
2022-10-20T05:24:34.189Z,100545.47
2022-10-20T05:27:36.757Z,100551.41
2022-10-20T05:30:43.448Z,100555.50
2022-10-20T05:33:48.418Z,100561.63
2022-10-20T05:36:53.955Z,100561.63
2022-10-20T05:39:56.540Z,100555.59
2022-10-20T05:42:59.381Z,100578.50
2022-10-20T05:46:02.354Z,100565.66
2022-10-20T05:49:05.195Z,100570.53
2022-10-20T05:52:08.258Z,100573.13
2022-10-20T05:55:11.300Z,100579.28
2022-10-20T05:58:14.568Z,100576.06
2022-10-20T06:01:26.321Z,100560.25
2022-10-20T06:04:30.869Z,100573.69
2022-10-20T06:07:33.490Z,100569.84
2022-10-20T06:10:37.141Z,100589.72
2022-10-20T06:13:39.733Z,100591.53
2022-10-20T06:16:42.799Z,100582.34
2022-10-20T06:19:45.261Z,100602.22
2022-10-20T06:22:48.172Z,100593.16
2022-10-20T06:25:50.706Z,100580.59
2022-10-20T06:28:58.602Z,100592.91
2022-10-20T06:32:02.506Z,100597.06
2022-10-20T06:35:05.777Z,100600.16
2022-10-20T06:38:08.543Z,100590.06
2022-10-20T06:41:16.953Z,100602.22
2022-10-20T06:44:21.188Z,100609.69
2022-10-20T06:47:23.985Z,100608.72
2022-10-20T06:50:27.210Z,100612.38
2022-10-20T06:53:31.018Z,100614.50
2022-10-20T06:56:35.277Z,100611.94
2022-10-20T06:59:38.838Z,100588.16
2022-10-20T07:02:41.406Z,100617.84
2022-10-20T07:05:44.238Z,100595.22
2022-10-20T07:08:47.929Z,100609.06
2022-10-20T07:11:52.784Z,100614.62
2022-10-20T07:14:55.637Z,100603.63
2022-10-20T07:17:58.469Z,100613.87
2022-10-20T07:21:04.046Z,100621.13
2022-10-20T07:24:08.043Z,100611.69
2022-10-20T07:27:10.517Z,100614.31
2022-10-20T07:30:13.929Z,100625.88
2022-10-20T07:33:16.447Z,100616.47
2022-10-20T07:36:24.122Z,100604.34
2022-10-20T07:39:27.417Z,100617.47
2022-10-20T07:42:30.292Z,100598.84
2022-10-20T07:45:33.077Z,100591.28
2022-10-20T07:48:36.137Z,100609.53
2022-10-20T07:51:38.716Z,100602.34
2022-10-20T07:54:41.642Z,100608.62
2022-10-20T07:57:44.169Z,100611.78
2022-10-20T08:00:50.588Z,100616.47
2022-10-20T08:03:53.724Z,100613.41
2022-10-20T08:06:56.310Z,100620.22
2022-10-20T08:09:59.134Z,100623.19
2022-10-20T08:13:01.675Z,100618.06
2022-10-20T08:16:06.722Z,100615.56
2022-10-20T08:19:17.097Z,100615.56
2022-10-20T08:22:20.092Z,100618.94
2022-10-20T08:25:22.826Z,100624.41
2022-10-20T08:28:27.012Z,100613.53
2022-10-20T08:31:29.819Z,100617.56
2022-10-20T08:34:32.661Z,100618.06
2022-10-20T08:37:36.614Z,100613.19
2022-10-20T08:40:43.179Z,100607.19
2022-10-20T08:43:47.174Z,100611.97
2022-10-20T08:46:50.039Z,100617.22
2022-10-20T08:49:52.899Z,100612.38
2022-10-20T08:52:59.401Z,100614.16
2022-10-20T08:56:01.918Z,100620.03
2022-10-20T08:59:21.837Z,100609.69
2022-10-20T09:02:24.669Z,100610.94
2022-10-20T09:05:32.046Z,100597.69
2022-10-20T09:08:37.456Z,100604.09
2022-10-20T09:11:41.221Z,100593.81
2022-10-20T09:14:43.866Z,100592.97
2022-10-20T09:17:50.311Z,100606.75
2022-10-20T09:20:56.186Z,100613.31
2022-10-20T09:24:05.534Z,100612.22
2022-10-20T09:27:44.314Z,100608.12
2022-10-20T09:30:51.792Z,100596.44
2022-10-20T09:33:54.455Z,100598.59
2022-10-20T09:37:08.818Z,100594.47
2022-10-20T09:40:15.912Z,100601.19
2022-10-20T09:43:19.339Z,100598.22
2022-10-20T09:46:25.476Z,100583.50
2022-10-20T09:49:34.905Z,100596.13
2022-10-20T09:52:47.779Z,100600.84
2022-10-20T09:55:51.793Z,100589.28
2022-10-20T09:58:56.365Z,100598.75
2022-10-20T10:02:01.968Z,100598.22
2022-10-20T10:05:19.281Z,100601.00
2022-10-20T10:08:23.995Z,100584.06
2022-10-20T10:11:36.993Z,100597.84
2022-10-20T10:14:53.361Z,100601.41
2022-10-20T10:17:57.258Z,100599.87
2022-10-20T10:21:15.447Z,100596.84
2022-10-20T10:24:40.922Z,100583.63
2022-10-20T10:28:01.146Z,100589.22
2022-10-20T10:31:22.604Z,100581.12
2022-10-20T10:34:37.638Z,100570.16
2022-10-20T10:37:43.347Z,100568.03
2022-10-20T10:40:53.526Z,100566.75
2022-10-20T10:44:19.644Z,100565.13
2022-10-20T10:48:00.420Z,100563.28
2022-10-20T10:51:28.405Z,100561.38
2022-10-20T10:54:56.078Z,100543.03
2022-10-20T10:58:48.679Z,100554.28
2022-10-20T11:02:06.140Z,100548.00
2022-10-20T11:05:25.982Z,100541.06
2022-10-20T11:08:47.088Z,100545.37
2022-10-20T11:12:07.887Z,100541.22
2022-10-20T11:15:43.642Z,100536.44
2022-10-20T11:18:49.097Z,100524.50
2022-10-20T11:22:24.221Z,100517.25
2022-10-20T11:25:50.170Z,100521.09
2022-10-20T11:28:55.755Z,100507.81
2022-10-20T11:32:21.754Z,100518.50
2022-10-20T11:35:48.175Z,100504.56
2022-10-20T11:38:55.891Z,100491.59
2022-10-20T11:42:18.103Z,100498.19
2022-10-20T11:45:33.085Z,100492.22
2022-10-20T11:48:42.414Z,100486.38
2022-10-20T11:52:03.692Z,100482.34
2022-10-20T11:55:23.447Z,100467.72
2022-10-20T11:58:54.026Z,100471.06
2022-10-20T12:02:15.111Z,100467.84
2022-10-20T12:05:43.991Z,100470.91
2022-10-20T12:09:08.021Z,100463.47
2022-10-20T12:12:31.073Z,100458.88
2022-10-20T12:15:33.996Z,100450.87
2022-10-20T12:18:37.678Z,100449.50
2022-10-20T12:21:57.157Z,100428.00
2022-10-20T12:24:59.878Z,100438.50
2022-10-20T12:28:25.395Z,100439.91
2022-10-20T12:32:05.929Z,100438.53
2022-10-20T12:35:11.369Z,100427.78
2022-10-20T12:38:17.968Z,100417.84
2022-10-20T12:41:34.239Z,100434.97
2022-10-20T12:44:43.385Z,100427.78
2022-10-20T12:48:00.717Z,100428.62
2022-10-20T12:51:08.805Z,100403.03
2022-10-20T12:54:43.729Z,100417.03
2022-10-20T12:57:49.315Z,100406.91
2022-10-20T13:00:52.429Z,100411.34
2022-10-20T13:03:55.318Z,100409.44
2022-10-20T13:06:57.826Z,100405.06
2022-10-20T13:10:03.456Z,100402.31
2022-10-20T13:13:07.360Z,100406.72
2022-10-20T13:16:17.926Z,100385.75
2022-10-20T13:19:25.622Z,100394.28
2022-10-20T13:22:46.860Z,100387.66
2022-10-20T13:25:52.283Z,100387.69
2022-10-20T13:28:58.707Z,100387.69
2022-10-20T13:32:12.723Z,100381.31
2022-10-20T13:35:30.115Z,100384.06
2022-10-20T13:38:43.005Z,100392.31
2022-10-20T13:42:01.866Z,100391.19
2022-10-20T13:45:07.505Z,100398.88
2022-10-20T13:48:38.735Z,100386.81
2022-10-20T13:51:46.555Z,100385.38
2022-10-20T13:54:51.559Z,100385.06
2022-10-20T13:58:08.441Z,100374.00
2022-10-20T14:01:24.422Z,100377.78
2022-10-20T14:04:35.937Z,100371.66
2022-10-20T14:07:43.285Z,100360.25
2022-10-20T14:10:53.513Z,100362.19
2022-10-20T14:13:57.050Z,100350.81
2022-10-20T14:17:05.197Z,100362.63
2022-10-20T14:20:22.258Z,100353.78
2022-10-20T14:23:26.885Z,100345.50
2022-10-20T14:26:30.258Z,100334.66
2022-10-20T14:29:37.691Z,100357.72
2022-10-20T14:32:40.899Z,100353.84
2022-10-20T14:35:59.401Z,100346.28
2022-10-20T14:39:04.205Z,100356.97
2022-10-20T14:42:36.456Z,100355.44
2022-10-20T14:45:39.048Z,100358.59
2022-10-20T14:48:45.833Z,100339.66
2022-10-20T14:51:58.909Z,100352.09
2022-10-20T14:55:01.928Z,100356.84
2022-10-20T14:58:04.690Z,100349.75
2022-10-20T15:01:20.403Z,100347.34
2022-10-20T15:04:27.070Z,100347.41
2022-10-20T15:07:35.131Z,100349.44
2022-10-20T15:10:39.429Z,100341.47
2022-10-20T15:13:51.584Z,100343.13
2022-10-20T15:16:54.612Z,100342.03
2022-10-20T15:19:57.524Z,100345.06
2022-10-20T15:23:13.749Z,100345.16
2022-10-20T15:26:16.581Z,100345.94
2022-10-20T15:29:19.629Z,100338.53
2022-10-20T15:32:22.590Z,100353.31
2022-10-20T15:35:25.140Z,100353.25
2022-10-20T15:38:28.019Z,100330.84
2022-10-20T15:41:33.484Z,100336.59
2022-10-20T15:44:36.610Z,100341.09
2022-10-20T15:47:39.228Z,100337.53
2022-10-20T15:50:43.753Z,100339.53
2022-10-20T15:53:49.513Z,100338.22
2022-10-20T15:56:52.500Z,100334.97
2022-10-20T15:59:55.284Z,100330.59
2022-10-20T16:02:58.418Z,100324.28
2022-10-20T16:06:01.423Z,100327.12
2022-10-20T16:09:05.138Z,100323.03
2022-10-20T16:12:10.478Z,100323.12
2022-10-20T16:15:32.938Z,100324.69
2022-10-20T16:18:55.728Z,100323.81
2022-10-20T16:22:18.120Z,100311.94
2022-10-20T16:25:40.918Z,100328.56
2022-10-20T16:29:03.474Z,100315.16
2022-10-20T16:32:27.677Z,100294.84
2022-10-20T16:35:31.804Z,100317.91
2022-10-20T16:38:39.031Z,100302.81
2022-10-20T16:41:43.845Z,100321.63
2022-10-20T16:44:47.229Z,100332.34
2022-10-20T16:47:50.295Z,100324.13
2022-10-20T16:50:53.831Z,100329.19
2022-10-20T16:54:00.781Z,100327.12
2022-10-20T16:57:09.252Z,100335.94
2022-10-20T17:00:13.001Z,100330.97
2022-10-20T17:03:20.295Z,100318.47
2022-10-20T17:06:26.083Z,100332.66
2022-10-20T17:09:30.608Z,100336.66
2022-10-20T17:12:33.463Z,100336.50
2022-10-20T17:15:36.677Z,100340.25
2022-10-20T17:18:39.526Z,100338.56
2022-10-20T17:21:42.695Z,100353.59
2022-10-20T17:24:45.410Z,100343.16
2022-10-20T17:27:48.550Z,100353.78
2022-10-20T17:30:53.101Z,100357.75
2022-10-20T17:33:58.452Z,100360.47
2022-10-20T17:37:01.429Z,100352.31
2022-10-20T17:40:05.214Z,100370.03
2022-10-20T17:43:08.050Z,100356.69
2022-10-20T17:46:13.827Z,100354.38
2022-10-20T17:49:16.628Z,100354.16
2022-10-20T17:52:19.780Z,100359.34
2022-10-20T17:55:22.624Z,100363.09
2022-10-20T17:58:26.017Z,100354.31
2022-10-20T18:01:34.566Z,100356.19
2022-10-20T18:04:38.774Z,100355.53
2022-10-20T18:07:41.996Z,100339.25
2022-10-20T18:10:45.452Z,100352.75
2022-10-20T18:13:48.967Z,100355.25
2022-10-20T18:16:52.589Z,100352.28
2022-10-20T18:19:57.647Z,100351.25
2022-10-20T18:23:00.736Z,100350.56
2022-10-20T18:26:09.250Z,100343.25
2022-10-20T18:29:13.350Z,100343.00
2022-10-20T18:32:16.461Z,100340.91
2022-10-20T18:38:27.827Z,100349.56
2022-10-20T18:41:37.308Z,100332.63
2022-10-20T18:44:40.227Z,100343.06
2022-10-20T18:47:45.058Z,100339.91
2022-10-20T18:50:58.588Z,100343.44
2022-10-20T18:54:03.168Z,100329.56
2022-10-20T18:57:05.968Z,100337.41
2022-10-20T19:00:10.054Z,100356.38
2022-10-20T19:03:16.034Z,100351.12
2022-10-20T19:06:34.010Z,100339.28
2022-10-20T19:09:39.611Z,100337.84
2022-10-20T19:12:43.880Z,100330.25
2022-10-20T19:15:46.744Z,100329.75
2022-10-20T19:18:52.139Z,100325.53
2022-10-20T19:21:55.005Z,100340.09
2022-10-20T19:24:58.281Z,100339.66
2022-10-20T19:28:01.095Z,100343.78
2022-10-20T19:31:21.249Z,100325.78
2022-10-20T19:34:31.331Z,100342.03
2022-10-20T19:37:34.442Z,100342.63
2022-10-20T19:40:38.344Z,100347.56
2022-10-20T19:43:41.863Z,100349.44
2022-10-20T19:46:47.396Z,100355.22
2022-10-20T19:49:50.590Z,100355.78
2022-10-20T19:52:57.904Z,100342.97
2022-10-20T19:56:02.094Z,100353.03
2022-10-20T19:59:06.547Z,100360.66
2022-10-20T20:02:11.770Z,100359.00
2022-10-20T20:05:14.886Z,100336.41
2022-10-20T20:08:17.789Z,100349.78
2022-10-20T20:11:26.451Z,100333.47
2022-10-20T20:14:29.379Z,100358.66
2022-10-20T20:17:32.473Z,100344.72
2022-10-20T20:20:35.461Z,100342.41
2022-10-20T20:23:58.355Z,100342.13
2022-10-20T20:27:02.276Z,100347.69
2022-10-20T20:30:05.704Z,100342.06
2022-10-20T20:33:09.302Z,100345.94
2022-10-20T20:36:12.111Z,100345.94
2022-10-20T20:39:14.815Z,100350.50
2022-10-20T20:42:17.623Z,100350.88
2022-10-20T20:45:20.106Z,100347.34
2022-10-20T20:48:22.994Z,100346.53
2022-10-20T20:51:27.022Z,100356.69
2022-10-20T20:54:32.984Z,100354.34
2022-10-20T20:57:36.103Z,100357.06
2022-10-20T21:00:39.187Z,100350.38
2022-10-20T21:03:43.440Z,100366.53
2022-10-20T21:07:02.782Z,100354.72
2022-10-20T21:10:06.403Z,100351.19
2022-10-20T21:13:09.210Z,100351.81
2022-10-20T21:16:26.137Z,100340.12
2022-10-20T21:19:29.842Z,100339.63
2022-10-20T21:22:32.412Z,100338.81
2022-10-20T21:25:35.252Z,100328.94
2022-10-20T21:28:38.311Z,100340.34
2022-10-20T21:31:41.332Z,100334.19
2022-10-20T21:34:44.248Z,100330.00
2022-10-20T21:37:47.100Z,100343.75
2022-10-20T21:40:49.644Z,100343.31
2022-10-20T21:43:54.780Z,100339.81
2022-10-20T21:46:57.391Z,100332.72
2022-10-20T21:50:00.330Z,100339.78
2022-10-20T21:53:02.906Z,100336.03
2022-10-20T21:56:06.739Z,100332.44
2022-10-20T21:59:18.895Z,100325.13
2022-10-20T22:02:21.681Z,100333.34
2022-10-20T22:05:24.526Z,100311.16
2022-10-20T22:08:27.186Z,100324.03
2022-10-20T22:11:33.607Z,100320.50
2022-10-20T22:14:36.179Z,100318.03
2022-10-20T22:17:39.479Z,100306.50
2022-10-20T22:20:42.265Z,100321.69
2022-10-20T22:23:45.579Z,100321.09
2022-10-20T22:26:50.842Z,100307.94
2022-10-20T22:29:57.304Z,100326.06
2022-10-20T22:33:00.654Z,100303.09
2022-10-20T22:36:05.086Z,100310.78
2022-10-20T22:39:08.851Z,100297.97
2022-10-20T22:42:12.885Z,100315.37
2022-10-20T22:45:15.802Z,100312.34
2022-10-20T22:48:18.781Z,100300.06
2022-10-20T22:51:21.748Z,100314.97
2022-10-20T22:54:24.586Z,100323.56
2022-10-20T22:57:27.258Z,100322.81
2022-10-20T23:00:30.338Z,100314.91
2022-10-20T23:03:32.923Z,100302.44
2022-10-20T23:06:35.741Z,100302.31
2022-10-20T23:09:38.285Z,100320.62
2022-10-20T23:12:41.215Z,100305.59
2022-10-20T23:15:50.213Z,100311.69
2022-10-20T23:18:53.078Z,100313.81
2022-10-20T23:21:55.627Z,100300.94
2022-10-20T23:24:58.517Z,100302.59
2022-10-20T23:28:01.011Z,100290.91
2022-10-20T23:31:14.357Z,100292.59
2022-10-20T23:34:17.031Z,100299.19
2022-10-20T23:37:21.788Z,100296.72
2022-10-20T23:40:25.121Z,100292.53
2022-10-20T23:43:28.063Z,100294.87
2022-10-20T23:46:32.515Z,100293.22
2022-10-20T23:49:35.409Z,100302.00
2022-10-20T23:55:43.055Z,100298.09
2022-10-20T23:58:45.642Z,100303.66
